createdAt,value
2022-11-17T00:02:17.592Z,7.37
2022-11-17T00:04:48.905Z,7.33
2022-11-17T00:07:16.024Z,7.35
2022-11-17T00:09:43.562Z,7.43
2022-11-17T00:12:32.963Z,7.43
2022-11-17T00:15:02.095Z,7.50
2022-11-17T00:17:30.851Z,7.57
2022-11-17T00:20:16.865Z,7.64
2022-11-17T00:22:45.602Z,7.58
2022-11-17T00:25:13.245Z,7.57
2022-11-17T00:27:40.411Z,7.57
2022-11-17T00:30:11.647Z,7.62
2022-11-17T00:32:59.742Z,7.50
2022-11-17T00:35:27.162Z,7.50
2022-11-17T00:38:13.246Z,7.58
2022-11-17T00:40:43.191Z,7.53
2022-11-17T00:43:10.684Z,7.46
2022-11-17T00:45:37.820Z,7.47
2022-11-17T00:48:09.288Z,7.46
2022-11-17T00:50:38.242Z,7.31
2022-11-17T00:53:05.655Z,7.19
2022-11-17T00:55:32.933Z,7.26
2022-11-17T00:58:01.150Z,7.34
2022-11-17T01:00:35.964Z,7.37
2022-11-17T01:03:04.285Z,7.38
2022-11-17T01:05:34.560Z,7.45
2022-11-17T01:08:01.677Z,7.43
2022-11-17T01:10:28.774Z,7.32
2022-11-17T01:12:57.140Z,7.35
2022-11-17T01:15:24.532Z,7.36
2022-11-17T01:17:53.097Z,7.42
2022-11-17T01:20:21.063Z,7.37
2022-11-17T01:22:50.207Z,7.35
2022-11-17T01:25:18.278Z,7.34
2022-11-17T01:27:48.685Z,7.30
2022-11-17T01:30:17.796Z,7.37
2022-11-17T01:32:46.721Z,7.33
2022-11-17T01:35:16.298Z,7.35
2022-11-17T01:37:43.522Z,7.44
2022-11-17T01:40:14.123Z,7.42
2022-11-17T01:42:42.298Z,7.44
2022-11-17T01:45:26.887Z,7.35
2022-11-17T01:48:00.520Z,7.28
2022-11-17T01:50:40.284Z,7.33
2022-11-17T01:53:12.367Z,7.37
2022-11-17T01:55:45.028Z,7.37
2022-11-17T01:58:18.475Z,7.37
2022-11-17T02:00:46.576Z,7.27
2022-11-17T02:03:14.354Z,7.15
2022-11-17T02:05:55.135Z,7.22
2022-11-17T02:08:25.444Z,7.17
2022-11-17T02:10:54.204Z,7.27
2022-11-17T02:13:23.084Z,7.22
2022-11-17T02:15:50.819Z,7.23
2022-11-17T02:18:18.447Z,7.31
2022-11-17T02:21:11.287Z,7.24
2022-11-17T02:24:09.782Z,7.25
2022-11-17T02:26:48.922Z,7.26
2022-11-17T02:29:52.293Z,7.24
2022-11-17T02:32:30.365Z,7.34
2022-11-17T02:35:22.198Z,7.32
2022-11-17T02:38:19.328Z,7.28
2022-11-17T02:41:06.680Z,7.28
2022-11-17T02:44:04.067Z,7.15
2022-11-17T02:47:18.999Z,7.03
2022-11-17T02:49:58.500Z,7.11
2022-11-17T02:52:27.699Z,7.26
2022-11-17T02:55:04.123Z,7.23
2022-11-17T02:57:38.178Z,7.23
2022-11-17T03:00:18.177Z,7.16
2022-11-17T03:03:03.489Z,6.97
2022-11-17T03:06:07.825Z,7.05
2022-11-17T03:08:47.235Z,7.01
2022-11-17T03:11:22.681Z,7.14
2022-11-17T03:14:02.595Z,7.17
2022-11-17T03:16:54.240Z,7.13
2022-11-17T03:19:56.797Z,7.04
2022-11-17T03:22:43.894Z,7.05
2022-11-17T03:25:17.469Z,7.01
2022-11-17T03:27:49.175Z,6.99
2022-11-17T03:30:17.854Z,6.96
2022-11-17T03:32:51.495Z,6.95
2022-11-17T03:35:23.852Z,6.90
2022-11-17T03:37:58.971Z,6.85
2022-11-17T03:40:31.444Z,6.85
2022-11-17T03:43:02.445Z,6.88
2022-11-17T03:45:37.783Z,6.74
2022-11-17T03:48:20.387Z,6.76
2022-11-17T03:50:59.822Z,6.77
2022-11-17T03:53:26.953Z,6.74
2022-11-17T03:56:17.340Z,6.66
2022-11-17T03:59:00.746Z,6.75
2022-11-17T04:01:31.427Z,6.71
2022-11-17T04:03:58.909Z,6.70
2022-11-17T04:06:26.367Z,6.68
2022-11-17T04:08:53.403Z,6.66
2022-11-17T04:11:39.217Z,6.59
2022-11-17T04:14:25.505Z,6.58
2022-11-17T04:16:53.923Z,6.56
2022-11-17T04:19:20.960Z,6.61
2022-11-17T04:21:48.310Z,6.51
2022-11-17T04:24:18.336Z,6.50
2022-11-17T04:27:06.570Z,6.48
2022-11-17T04:29:36.684Z,6.38
2022-11-17T04:32:04.410Z,6.38
2022-11-17T04:34:32.979Z,6.29
2022-11-17T04:37:05.363Z,6.25
2022-11-17T04:39:38.728Z,6.30
2022-11-17T04:42:06.114Z,6.27
2022-11-17T04:44:33.442Z,6.22
2022-11-17T04:47:03.291Z,6.21
2022-11-17T04:49:32.344Z,6.21
2022-11-17T04:51:59.381Z,6.20
2022-11-17T04:54:26.451Z,6.09
2022-11-17T04:56:55.047Z,5.99
2022-11-17T04:59:22.386Z,5.89
2022-11-17T05:01:49.793Z,5.81
2022-11-17T05:04:39.764Z,5.73
2022-11-17T05:07:08.601Z,5.79
2022-11-17T05:09:36.238Z,5.80
2022-11-17T05:12:22.373Z,5.90
2022-11-17T05:14:50.576Z,5.99
2022-11-17T05:17:18.120Z,6.05
2022-11-17T05:19:47.189Z,6.09
2022-11-17T05:22:39.950Z,6.16
2022-11-17T05:25:08.501Z,6.28
2022-11-17T05:27:36.176Z,6.34
2022-11-17T05:30:05.723Z,6.39
2022-11-17T05:32:32.809Z,6.45
2022-11-17T05:35:01.483Z,6.49
2022-11-17T05:37:28.649Z,6.57
2022-11-17T05:39:55.679Z,6.62
2022-11-17T05:42:23.058Z,6.56
2022-11-17T05:44:51.207Z,6.59
2022-11-17T05:47:23.773Z,6.59
2022-11-17T05:49:53.153Z,6.68
2022-11-17T05:52:20.950Z,6.74
2022-11-17T05:54:48.124Z,6.76
2022-11-17T05:57:20.953Z,6.90
2022-11-17T05:59:59.765Z,6.87
2022-11-17T06:02:45.289Z,7.01
2022-11-17T06:05:18.705Z,7.01
2022-11-17T06:07:51.646Z,6.91
2022-11-17T06:10:22.969Z,6.90
2022-11-17T06:12:52.087Z,6.85
2022-11-17T06:15:21.795Z,6.82
2022-11-17T06:17:56.205Z,6.84
2022-11-17T06:20:43.376Z,6.78
2022-11-17T06:23:12.227Z,6.84
2022-11-17T06:25:40.351Z,6.74
2022-11-17T06:28:14.258Z,6.75
2022-11-17T06:30:44.409Z,6.66
2022-11-17T06:33:15.667Z,6.74
2022-11-17T06:35:45.541Z,6.71
2022-11-17T06:38:14.750Z,6.69
2022-11-17T06:40:45.314Z,6.58
2022-11-17T06:43:15.254Z,6.58
2022-11-17T06:45:47.579Z,6.50
2022-11-17T06:48:17.310Z,6.46
2022-11-17T06:50:48.919Z,6.41
2022-11-17T06:53:17.611Z,6.48
2022-11-17T06:55:47.826Z,6.58
2022-11-17T06:58:18.204Z,6.63
2022-11-17T07:00:48.639Z,6.76
2022-11-17T07:03:17.802Z,6.81
2022-11-17T07:05:47.281Z,6.99
2022-11-17T07:08:19.046Z,7.14
2022-11-17T07:10:49.309Z,7.04
2022-11-17T07:13:18.123Z,7.05
2022-11-17T07:15:46.972Z,7.20
2022-11-17T07:18:16.719Z,7.11
2022-11-17T07:20:46.991Z,7.17
2022-11-17T07:23:18.737Z,7.34
2022-11-17T07:25:52.355Z,7.46
2022-11-17T07:28:21.668Z,7.46
2022-11-17T07:30:59.315Z,7.39
2022-11-17T07:33:27.690Z,7.55
2022-11-17T07:35:56.099Z,7.68
2022-11-17T07:38:25.275Z,7.75
2022-11-17T07:40:57.614Z,7.89
2022-11-17T07:43:25.440Z,7.87
2022-11-17T07:45:53.382Z,7.82
2022-11-17T07:48:21.779Z,7.95
2022-11-17T07:50:49.383Z,7.93
2022-11-17T07:53:17.720Z,7.87
2022-11-17T07:55:47.119Z,7.83
2022-11-17T07:58:15.207Z,7.81
2022-11-17T08:00:44.305Z,7.91
2022-11-17T08:03:13.975Z,8.08
2022-11-17T08:05:43.717Z,8.11
2022-11-17T08:08:13.132Z,8.12
2022-11-17T08:10:41.106Z,8.25
2022-11-17T08:13:11.080Z,8.29
2022-11-17T08:15:38.576Z,8.53
2022-11-17T08:18:09.083Z,8.65
2022-11-17T08:20:42.628Z,8.67
2022-11-17T08:23:10.212Z,8.83
2022-11-17T08:25:37.424Z,8.86
2022-11-17T08:28:06.689Z,8.96
2022-11-17T08:30:36.131Z,8.89
2022-11-17T08:33:03.938Z,8.78
2022-11-17T08:35:37.302Z,8.77
2022-11-17T08:38:06.014Z,8.66
2022-11-17T08:40:33.858Z,8.61
2022-11-17T08:43:03.791Z,8.63
2022-11-17T08:45:36.705Z,8.52
2022-11-17T08:48:09.980Z,8.65
2022-11-17T08:50:39.537Z,8.87
2022-11-17T08:53:17.393Z,8.92
2022-11-17T08:55:48.471Z,9.04
2022-11-17T08:58:19.786Z,9.10
2022-11-17T09:00:51.002Z,9.28
2022-11-17T09:03:18.410Z,9.20
2022-11-17T09:05:50.902Z,9.07
2022-11-17T09:08:49.201Z,9.12
2022-11-17T09:11:11.839Z,9.12
2022-11-17T09:13:42.637Z,9.05
2022-11-17T09:16:12.563Z,9.27
2022-11-17T09:18:41.554Z,9.54
2022-11-17T09:21:15.746Z,9.63
2022-11-17T09:24:02.599Z,9.68
2022-11-17T09:26:31.456Z,9.62
2022-11-17T09:29:03.273Z,9.85
2022-11-17T09:31:30.973Z,9.86
2022-11-17T09:34:00.830Z,9.87
2022-11-17T09:36:32.297Z,9.89
2022-11-17T09:39:02.530Z,10.04
2022-11-17T09:41:48.184Z,10.01
2022-11-17T09:44:39.843Z,10.07
2022-11-17T09:47:36.207Z,10.18
2022-11-17T09:50:28.176Z,10.21
2022-11-17T09:53:07.829Z,10.28
2022-11-17T09:55:39.796Z,10.17
2022-11-17T09:58:33.954Z,10.07
2022-11-17T10:01:02.006Z,10.06
2022-11-17T10:03:40.083Z,10.39
2022-11-17T10:06:23.120Z,10.80
2022-11-17T10:09:01.233Z,11.06
2022-11-17T10:11:34.133Z,10.73
2022-11-17T10:14:08.437Z,10.69
2022-11-17T10:16:37.772Z,10.31
2022-11-17T10:19:15.818Z,10.40
2022-11-17T10:21:43.011Z,10.61
2022-11-17T10:24:10.655Z,10.79
2022-11-17T10:26:48.652Z,10.75
2022-11-17T10:29:23.243Z,10.77
2022-11-17T10:31:50.598Z,10.70
2022-11-17T10:34:38.812Z,10.50
2022-11-17T10:37:13.511Z,10.49
2022-11-17T10:39:43.298Z,10.60
2022-11-17T10:42:25.395Z,10.70
2022-11-17T10:44:58.588Z,10.75
2022-11-17T10:47:44.231Z,11.04
2022-11-17T10:50:31.931Z,11.38
2022-11-17T10:53:21.366Z,11.60
2022-11-17T10:55:54.761Z,11.55
2022-11-17T10:58:24.597Z,11.86
2022-11-17T11:00:59.062Z,11.94
2022-11-17T11:03:31.191Z,12.12
2022-11-17T11:06:02.783Z,12.16
2022-11-17T11:08:38.582Z,12.11
2022-11-17T11:11:16.047Z,12.04
2022-11-17T11:13:52.145Z,11.86
2022-11-17T11:16:20.261Z,11.64
2022-11-17T11:18:52.889Z,11.51
2022-11-17T11:21:28.312Z,11.80
2022-11-17T11:24:10.513Z,11.78
2022-11-17T11:27:00.793Z,11.54
2022-11-17T11:29:59.366Z,11.41
2022-11-17T11:33:03.359Z,11.29
2022-11-17T11:36:15.574Z,11.40
2022-11-17T11:38:55.230Z,11.38
2022-11-17T11:41:47.860Z,11.35
2022-11-17T11:44:38.710Z,11.35
2022-11-17T11:47:07.460Z,11.35
2022-11-17T11:49:59.930Z,11.51
2022-11-17T11:52:35.681Z,11.57
2022-11-17T11:55:20.954Z,11.66
2022-11-17T11:58:06.004Z,11.66
2022-11-17T12:00:37.450Z,11.76
2022-11-17T12:03:20.843Z,11.78
2022-11-17T12:06:25.171Z,11.93
2022-11-17T12:09:07.323Z,12.07
2022-11-17T12:11:53.649Z,12.19
2022-11-17T12:14:22.089Z,12.19
2022-11-17T12:16:49.543Z,12.00
2022-11-17T12:19:50.297Z,12.61
2022-11-17T12:22:22.704Z,13.09
2022-11-17T12:24:56.371Z,13.12
2022-11-17T12:27:35.858Z,13.09
2022-11-17T12:30:12.367Z,13.04
2022-11-17T12:32:49.490Z,12.81
2022-11-17T12:35:27.252Z,12.54
2022-11-17T12:38:22.186Z,12.22
2022-11-17T12:40:51.237Z,12.58
2022-11-17T12:43:25.465Z,12.67
2022-11-17T12:45:52.425Z,12.49
2022-11-17T12:48:33.489Z,12.59
2022-11-17T12:51:07.661Z,12.60
2022-11-17T12:53:39.937Z,12.56
2022-11-17T12:56:19.775Z,12.61
2022-11-17T12:59:17.846Z,12.82
2022-11-17T13:02:21.866Z,12.59
2022-11-17T13:04:57.148Z,12.56
2022-11-17T13:07:26.212Z,12.46
2022-11-17T13:09:58.980Z,12.29
2022-11-17T13:12:30.649Z,12.19
2022-11-17T13:15:00.420Z,11.85
2022-11-17T13:17:39.653Z,11.97
2022-11-17T13:20:28.814Z,11.96
2022-11-17T13:23:26.111Z,11.81
2022-11-17T13:26:37.863Z,11.95
2022-11-17T13:29:13.815Z,12.10
2022-11-17T13:31:41.225Z,12.30
2022-11-17T13:34:17.454Z,12.69
2022-11-17T13:37:00.132Z,12.76
2022-11-17T13:39:28.131Z,12.79
2022-11-17T13:42:01.065Z,12.46
2022-11-17T13:44:28.863Z,12.05
2022-11-17T13:46:56.222Z,11.72
2022-11-17T13:49:36.207Z,11.55
2022-11-17T13:52:14.213Z,11.25
2022-11-17T13:54:45.017Z,11.05
2022-11-17T13:57:25.326Z,11.07
2022-11-17T13:59:53.189Z,11.06
2022-11-17T14:02:20.411Z,11.03
2022-11-17T14:05:14.473Z,10.97
2022-11-17T14:07:43.561Z,10.97
2022-11-17T14:10:19.960Z,10.86
2022-11-17T14:13:13.932Z,10.78
2022-11-17T14:15:42.744Z,10.66
2022-11-17T14:18:34.277Z,10.47
2022-11-17T14:21:15.262Z,10.38
2022-11-17T14:23:44.260Z,10.33
2022-11-17T14:26:24.930Z,10.29
2022-11-17T14:28:52.654Z,10.35
2022-11-17T14:31:20.122Z,10.33
2022-11-17T14:33:47.260Z,10.30
2022-11-17T14:36:16.711Z,10.30
2022-11-17T14:38:45.418Z,10.22
2022-11-17T14:41:16.109Z,10.25
2022-11-17T14:43:43.639Z,10.09
2022-11-17T14:46:18.889Z,10.00
2022-11-17T14:48:46.258Z,9.99
2022-11-17T14:51:15.618Z,9.92
2022-11-17T14:53:44.093Z,9.97
2022-11-17T14:56:16.383Z,9.94
2022-11-17T14:58:43.621Z,9.85
2022-11-17T15:01:15.487Z,9.81
2022-11-17T15:03:42.924Z,9.79
2022-11-17T15:06:18.211Z,9.76
2022-11-17T15:08:58.310Z,9.71
2022-11-17T15:11:26.622Z,9.61
2022-11-17T15:13:54.005Z,9.51
2022-11-17T15:16:21.127Z,9.40
2022-11-17T15:18:48.614Z,9.29
2022-11-17T15:21:17.014Z,9.24
2022-11-17T15:23:44.647Z,9.23
2022-11-17T15:26:14.324Z,9.22
2022-11-17T15:28:42.063Z,9.12
2022-11-17T15:31:18.305Z,9.04
2022-11-17T15:33:47.105Z,9.01
2022-11-17T15:36:16.833Z,8.99
2022-11-17T15:38:43.968Z,8.94
2022-11-17T15:41:12.596Z,8.93
2022-11-17T15:43:41.576Z,8.95
2022-11-17T15:46:18.694Z,8.96
2022-11-17T15:48:49.122Z,9.00
2022-11-17T15:51:18.268Z,8.99
2022-11-17T15:53:48.890Z,8.98
2022-11-17T15:56:21.421Z,9.00
2022-11-17T15:58:54.296Z,9.01
2022-11-17T16:01:24.948Z,9.03
2022-11-17T16:03:56.634Z,9.01
2022-11-17T16:06:23.810Z,9.09
2022-11-17T16:08:51.999Z,9.10
2022-11-17T16:11:19.335Z,9.11
2022-11-17T16:13:46.760Z,9.15
2022-11-17T16:16:15.316Z,9.14
2022-11-17T16:18:42.686Z,9.13
2022-11-17T16:21:12.342Z,9.14
2022-11-17T16:23:39.508Z,9.04
2022-11-17T16:26:07.501Z,9.10
2022-11-17T16:28:34.655Z,9.14
2022-11-17T16:31:18.895Z,9.01
2022-11-17T16:33:56.660Z,9.01
2022-11-17T16:36:28.995Z,9.10
2022-11-17T16:39:01.510Z,9.07
2022-11-17T16:41:32.521Z,9.13
2022-11-17T16:44:00.504Z,9.27
2022-11-17T16:46:30.299Z,9.30
2022-11-17T16:49:01.724Z,9.31
2022-11-17T16:51:29.234Z,9.28
2022-11-17T16:53:59.050Z,9.23
2022-11-17T16:56:26.301Z,9.19
2022-11-17T16:58:54.831Z,9.24
2022-11-17T17:01:24.597Z,9.14
2022-11-17T17:03:56.031Z,9.11
2022-11-17T17:06:23.710Z,9.13
2022-11-17T17:08:55.501Z,9.14
2022-11-17T17:11:23.090Z,9.05
2022-11-17T17:13:50.495Z,9.03
2022-11-17T17:16:19.488Z,9.12
2022-11-17T17:18:46.906Z,9.11
2022-11-17T17:21:17.181Z,9.02
2022-11-17T17:23:45.667Z,8.99
2022-11-17T17:26:16.846Z,8.89
2022-11-17T17:28:46.401Z,8.96
2022-11-17T17:31:20.971Z,8.93
2022-11-17T17:33:50.739Z,8.91
2022-11-17T17:36:20.777Z,8.94
2022-11-17T17:38:53.616Z,8.96
2022-11-17T17:41:27.220Z,8.85
2022-11-17T17:43:57.138Z,8.83
2022-11-17T17:46:25.226Z,8.87
2022-11-17T17:48:52.556Z,8.82
2022-11-17T17:51:21.433Z,8.89
2022-11-17T17:53:51.456Z,8.84
2022-11-17T17:56:20.613Z,8.78
2022-11-17T17:58:51.837Z,8.83
2022-11-17T18:01:25.020Z,8.86
2022-11-17T18:03:53.996Z,8.85
2022-11-17T18:06:22.291Z,8.85
2022-11-17T18:08:49.993Z,8.90
2022-11-17T18:11:19.832Z,8.85
2022-11-17T18:13:52.429Z,8.85
2022-11-17T18:16:24.281Z,8.83
2022-11-17T18:18:57.107Z,8.86
2022-11-17T18:21:25.438Z,8.79
2022-11-17T18:23:53.598Z,8.80
2022-11-17T18:26:25.921Z,8.80
2022-11-17T18:29:05.111Z,8.73
2022-11-17T18:31:34.009Z,8.77
2022-11-17T18:34:04.628Z,8.71
2022-11-17T18:36:32.161Z,8.77
2022-11-17T18:39:02.090Z,8.74
2022-11-17T18:41:30.958Z,8.72
2022-11-17T18:43:58.657Z,8.70
2022-11-17T18:46:30.712Z,8.64
2022-11-17T18:48:58.603Z,8.66
2022-11-17T18:51:28.161Z,8.57
2022-11-17T18:53:57.392Z,8.65
2022-11-17T18:56:27.286Z,8.67
2022-11-17T18:58:54.488Z,8.67
2022-11-17T19:01:28.055Z,8.68
2022-11-17T19:03:58.074Z,8.58
2022-11-17T19:06:25.774Z,8.56
2022-11-17T19:08:53.807Z,8.54
2022-11-17T19:11:22.409Z,8.44
2022-11-17T19:13:49.945Z,8.45
2022-11-17T19:16:19.579Z,8.36
2022-11-17T19:18:48.449Z,8.31
2022-11-17T19:21:30.817Z,8.44
2022-11-17T19:24:00.352Z,8.44
2022-11-17T19:26:29.894Z,8.43
2022-11-17T19:29:02.244Z,8.40
2022-11-17T19:31:29.960Z,8.32
2022-11-17T19:33:57.961Z,8.30
2022-11-17T19:36:29.902Z,8.28
2022-11-17T19:38:58.739Z,8.32
2022-11-17T19:41:26.842Z,8.39
2022-11-17T19:43:58.436Z,8.33
2022-11-17T19:46:27.571Z,8.25
2022-11-17T19:48:58.283Z,8.23
2022-11-17T19:51:29.218Z,8.22
2022-11-17T19:54:01.644Z,8.23
2022-11-17T19:56:29.347Z,8.22
2022-11-17T19:58:56.987Z,8.21
2022-11-17T20:01:28.982Z,8.21
2022-11-17T20:03:57.563Z,8.18
2022-11-17T20:06:28.778Z,8.08
2022-11-17T20:08:57.407Z,8.06
2022-11-17T20:11:27.200Z,8.06
2022-11-17T20:13:55.184Z,8.11
2022-11-17T20:16:24.720Z,8.11
2022-11-17T20:18:57.592Z,8.14
2022-11-17T20:21:26.107Z,8.21
2022-11-17T20:23:54.315Z,8.17
2022-11-17T20:26:26.746Z,8.01
2022-11-17T20:28:55.225Z,7.97
2022-11-17T20:31:31.232Z,7.92
2022-11-17T20:34:00.709Z,7.88
2022-11-17T20:36:29.889Z,7.84
2022-11-17T20:39:00.191Z,7.82
2022-11-17T20:41:28.233Z,7.86
2022-11-17T20:43:56.383Z,7.81
2022-11-17T20:46:24.215Z,7.86
2022-11-17T20:48:52.138Z,7.86
2022-11-17T20:51:24.303Z,7.83
2022-11-17T20:53:51.784Z,7.81
2022-11-17T20:56:19.028Z,7.81
2022-11-17T20:58:46.123Z,7.84
2022-11-17T21:01:19.219Z,7.95
2022-11-17T21:03:46.736Z,7.84
2022-11-17T21:06:15.398Z,7.82
2022-11-17T21:08:44.329Z,7.80
2022-11-17T21:11:46.888Z,7.70
2022-11-17T21:14:14.316Z,7.61
2022-11-17T21:16:45.475Z,7.66
2022-11-17T21:19:14.270Z,7.69
2022-11-17T21:21:42.973Z,7.57
2022-11-17T21:24:10.248Z,7.52
2022-11-17T21:26:37.604Z,7.51
2022-11-17T21:29:06.836Z,7.48
2022-11-17T21:31:35.086Z,7.42
2022-11-17T21:34:04.593Z,7.39
2022-11-17T21:36:33.406Z,7.37
2022-11-17T21:39:00.892Z,7.37
2022-11-17T21:41:30.157Z,7.36
2022-11-17T21:44:02.095Z,7.32
2022-11-17T21:46:31.925Z,7.28
2022-11-17T21:49:01.406Z,7.35
2022-11-17T21:51:34.153Z,7.30
2022-11-17T21:54:04.361Z,7.30
2022-11-17T21:56:32.195Z,7.22
2022-11-17T21:59:01.440Z,7.14
2022-11-17T22:01:30.062Z,7.12
2022-11-17T22:03:57.506Z,7.09
2022-11-17T22:06:26.085Z,7.05
2022-11-17T22:08:54.684Z,7.04
2022-11-17T22:11:38.181Z,7.04
2022-11-17T22:14:08.355Z,7.05
2022-11-17T22:16:38.150Z,7.05
2022-11-17T22:19:06.135Z,7.03
2022-11-17T22:21:33.229Z,7.03
2022-11-17T22:24:00.574Z,7.02
2022-11-17T22:26:29.344Z,6.91
2022-11-17T22:28:56.387Z,6.90
2022-11-17T22:31:24.274Z,6.93
2022-11-17T22:33:51.624Z,6.87
2022-11-17T22:36:19.393Z,6.88
2022-11-17T22:38:50.290Z,6.86
2022-11-17T22:41:18.667Z,6.91
2022-11-17T22:43:53.104Z,6.89
2022-11-17T22:46:22.033Z,6.89
2022-11-17T22:48:49.511Z,6.84
2022-11-17T22:51:36.130Z,6.77
2022-11-17T22:54:04.722Z,6.76
2022-11-17T22:56:32.321Z,6.73
2022-11-17T22:59:00.058Z,6.71
2022-11-17T23:01:27.700Z,6.71
2022-11-17T23:03:54.787Z,6.68
2022-11-17T23:06:22.904Z,6.68
2022-11-17T23:08:50.714Z,6.67
2022-11-17T23:14:08.017Z,6.70
2022-11-17T23:16:36.746Z,6.70
2022-11-17T23:19:04.501Z,6.68
2022-11-17T23:21:32.150Z,6.67
2022-11-17T23:23:59.177Z,6.70
2022-11-17T23:26:26.256Z,6.67
2022-11-17T23:28:53.620Z,6.63
2022-11-17T23:31:20.854Z,6.62
2022-11-17T23:33:49.018Z,6.68
2022-11-17T23:36:19.282Z,6.69
2022-11-17T23:38:47.410Z,6.76
2022-11-17T23:41:16.930Z,6.79
2022-11-17T23:43:44.712Z,6.79
2022-11-17T23:46:14.001Z,6.76
2022-11-17T23:48:42.456Z,6.78
2022-11-17T23:51:15.152Z,6.80
2022-11-17T23:53:43.000Z,6.76
2022-11-17T23:56:10.771Z,6.72
2022-11-17T23:58:37.818Z,6.68
